Terminal Aerodrome Forecast
Issued by NWS

Home | Current Version | Previous Version | Text Only | Print | Product List | Glossary On
Versions: 1 2 3 4 5 6 7 8 9 10 11 12 13 14 15 16 17 18 19
000
FTUS46 KLOX 282340
TAFPRB
TAF
KPRB 282340Z 2900/2924 22010KT P6SM SKC
     FM290300 30012KT P6SM SKC
     FM290700 30006KT P6SM SKC
     FM291100 VRB03KT P6SM SKC
     FM292100 26007KT P6SM SKC=

USA.gov is the U.S. government's official web portal to all federal, state and local government web resources and services.